Time;durP1;ratioP1;P1;durP2;ratioP2;P2;SDS_P1;SDS_P2;PMS_P1;PMS_P2;Temp;Humidity;BMP_temperature;BMP_pressure;BME280_temperature;BME280_humidity;BME280_pressure;Samples;Min_cycle;Max_cycle;Signal;HPM_P1;HPM_P2
2022/07/19 00:00:49;;;;;;;;;;;;;;;12.69;78.87;99470.47;4987957;28;19961;-64
2022/07/19 00:03:17;;;;;;;;;;;;;;;12.65;78.95;99474.94;4970059;28;19930;-65
2022/07/19 00:05:42;;;;;;;;;;;;;;;12.63;78.89;99468.94;4968293;28;20423;-66
2022/07/19 00:08:09;;;;;;;;;;;;;;;12.61;79.15;99476.66;4989958;28;19930;-66
2022/07/19 00:10:34;;;;;;;;;;;;;;;12.60;79.41;99470.34;4970749;28;20456;-66
2022/07/19 00:13:00;;;;;;;;;;;;;;;12.61;79.11;99471.97;4969020;28;19981;-66
2022/07/19 00:15:26;;;;;;;;;;;;;;;12.55;79.49;99464.09;4970361;28;19976;-66
2022/07/19 00:17:52;;;;;;;;;;;;;;;12.56;79.15;99463.00;4988686;28;19973;-65
2022/07/19 00:20:20;;;;;;;;;;;;;;;12.50;79.21;99462.28;4970802;28;19938;-65
2022/07/19 00:22:46;;;;;;;;;;;;;;;12.49;78.96;99466.13;4987188;28;20024;-63
2022/07/19 00:25:12;;;;;;;;;;;;;;;12.46;78.75;99466.69;4987696;28;20024;-64
2022/07/19 00:27:38;;;;;;;;;;;;;;;12.44;78.92;99463.44;4953950;28;19930;-64
2022/07/19 00:30:05;;;;;;;;;;;;;;;12.45;78.83;99473.28;4971239;28;19961;-65
2022/07/19 00:32:31;;;;;;;;;;;;;;;12.40;78.91;99465.16;4986773;28;19942;-64
2022/07/19 00:34:57;;;;;;;;;;;;;;;12.42;78.70;99469.25;4986837;28;19930;-65
2022/07/19 00:37:24;;;;;;;;;;;;;;;12.41;78.60;99462.13;4986570;28;19945;-65
2022/07/19 00:39:50;;;;;;;;;;;;;;;12.43;78.20;99470.03;4987833;28;19930;-64
2022/07/19 00:42:17;;;;;;;;;;;;;;;12.37;78.51;99472.03;4969703;28;20320;-65
2022/07/19 00:44:43;;;;;;;;;;;;;;;12.39;78.25;99469.81;4969157;28;19929;-66
2022/07/19 00:47:09;;;;;;;;;;;;;;;12.34;78.46;99475.38;4987799;28;19956;-66
2022/07/19 00:49:34;;;;;;;;;;;;;;;12.27;78.85;99462.00;4984892;28;19930;-64
2022/07/19 00:52:02;;;;;;;;;;;;;;;12.24;79.18;99470.00;4985881;28;19934;-63
2022/07/19 00:54:30;;;;;;;;;;;;;;;12.19;79.63;99470.91;4967877;28;19930;-66
2022/07/19 00:56:58;;;;;;;;;;;;;;;12.17;79.31;99473.94;4986107;28;20360;-64
2022/07/19 00:59:24;;;;;;;;;;;;;;;12.19;79.24;99473.66;4987499;28;19930;-66
2022/07/19 01:01:51;;;;;;;;;;;;;;;12.16;79.25;99479.69;4986881;28;19934;-66
2022/07/19 01:04:18;;;;;;;;;;;;;;;12.13;79.39;99478.38;4985770;28;20193;-65
2022/07/19 01:06:44;;;;;;;;;;;;;;;12.10;79.68;99475.41;4986497;28;20028;-65
2022/07/19 01:09:09;;;;;;;;;;;;;;;12.10;79.63;99476.22;4968793;28;20012;-64
2022/07/19 01:11:38;;;;;;;;;;;;;;;12.14;79.53;99479.19;4984959;28;19977;-66
2022/07/19 01:14:04;;;;;;;;;;;;;;;12.16;79.52;99477.78;4986292;28;19934;-67
2022/07/19 01:16:29;;;;;;;;;;;;;;;12.20;79.53;99480.75;4970141;28;20349;-65
2022/07/19 01:18:55;;;;;;;;;;;;;;;12.23;79.34;99479.34;4971380;28;20094;-65
2022/07/19 01:21:23;;;;;;;;;;;;;;;12.26;79.19;99479.56;4987247;28;20345;-66
2022/07/19 01:23:50;;;;;;;;;;;;;;;12.27;79.29;99474.91;4953397;28;20449;-66
2022/07/19 01:26:16;;;;;;;;;;;;;;;12.28;78.89;99474.59;4986924;28;19930;-66
2022/07/19 01:28:42;;;;;;;;;;;;;;;12.33;78.56;99476.47;4967375;28;19936;-66
2022/07/19 01:31:08;;;;;;;;;;;;;;;12.43;78.26;99478.25;4986024;28;19930;-65
2022/07/19 01:33:37;;;;;;;;;;;;;;;12.52;78.07;99476.50;4986631;28;20416;-65
2022/07/19 01:36:03;;;;;;;;;;;;;;;12.58;77.92;99480.00;4950889;28;19980;-64
2022/07/19 01:38:31;;;;;;;;;;;;;;;12.67;77.70;99475.44;4984669;28;19934;-65
2022/07/19 01:40:57;;;;;;;;;;;;;;;12.75;77.11;99476.72;4985172;28;19965;-65
2022/07/19 01:43:23;;;;;;;;;;;;;;;12.84;76.61;99490.56;4951705;28;19930;-64
2022/07/19 01:45:48;;;;;;;;;;;;;;;12.80;76.04;99471.16;4966344;28;19930;-66
2022/07/19 01:48:14;;;;;;;;;;;;;;;12.91;75.77;99485.53;4986155;28;19954;-65
2022/07/19 01:50:40;;;;;;;;;;;;;;;12.90;75.70;99489.41;4985593;28;19930;-65
2022/07/19 01:53:06;;;;;;;;;;;;;;;12.89;75.28;99487.75;4966589;28;19929;-64
2022/07/19 01:55:33;;;;;;;;;;;;;;;12.86;75.33;99491.09;4987115;28;19930;-65
2022/07/19 01:57:59;;;;;;;;;;;;;;;12.86;75.51;99491.91;4985840;28;19929;-65
2022/07/19 02:00:24;;;;;;;;;;;;;;;12.91;75.81;99489.06;4985841;28;19933;-67
2022/07/19 02:02:50;;;;;;;;;;;;;;;13.02;75.74;99491.66;4986732;28;19937;-65
2022/07/19 02:05:16;;;;;;;;;;;;;;;13.11;75.37;99489.88;4985265;28;19929;-66
2022/07/19 02:07:41;;;;;;;;;;;;;;;13.09;74.82;99497.59;4968440;28;19980;-67
2022/07/19 02:10:08;;;;;;;;;;;;;;;13.09;74.49;99496.78;4986933;28;19930;-65
2022/07/19 02:12:35;;;;;;;;;;;;;;;13.07;74.54;99497.06;4951166;28;19929;-64
2022/07/19 02:15:01;;;;;;;;;;;;;;;13.11;74.52;99502.78;4983685;28;19930;-64
2022/07/19 02:17:29;;;;;;;;;;;;;;;13.21;74.64;99504.53;4967333;28;19933;-66
2022/07/19 02:19:54;;;;;;;;;;;;;;;13.27;74.41;99506.09;4951156;28;20384;-64
2022/07/19 02:22:20;;;;;;;;;;;;;;;13.30;73.83;99502.75;4965798;28;20009;-65
2022/07/19 02:24:46;;;;;;;;;;;;;;;13.33;73.35;99500.22;4953044;28;19929;-66
2022/07/19 02:27:12;;;;;;;;;;;;;;;13.39;73.32;99508.38;4985510;28;19929;-63
2022/07/19 02:29:39;;;;;;;;;;;;;;;13.47;73.24;99505.78;4966056;28;20356;-65
2022/07/19 02:32:05;;;;;;;;;;;;;;;13.51;72.69;99491.44;4984257;28;20332;-65
2022/07/19 02:34:31;;;;;;;;;;;;;;;13.56;72.47;99505.91;4967533;28;20369;-66
2022/07/19 02:36:57;;;;;;;;;;;;;;;13.60;72.27;99504.19;4985467;28;20032;-66
2022/07/19 02:39:22;;;;;;;;;;;;;;;13.63;72.08;99507.44;4986686;28;19937;-66
2022/07/19 02:41:48;;;;;;;;;;;;;;;13.65;71.80;99508.75;4968198;28;19934;-67
2022/07/19 02:44:14;;;;;;;;;;;;;;;13.66;71.71;99510.41;4967674;28;20033;-66
2022/07/19 02:46:41;;;;;;;;;;;;;;;13.54;71.47;99490.84;4968375;28;19929;-67
2022/07/19 02:49:07;;;;;;;;;;;;;;;13.60;71.91;99511.63;4951882;28;20373;-67
2022/07/19 02:51:33;;;;;;;;;;;;;;;13.65;71.88;99507.94;4983948;28;20452;-65
2022/07/19 02:53:59;;;;;;;;;;;;;;;13.65;71.85;99522.50;4983841;28;19930;-67
2022/07/19 02:56:25;;;;;;;;;;;;;;;13.68;71.86;99521.09;4966448;28;19937;-64
2022/07/19 02:58:51;;;;;;;;;;;;;;;13.68;71.70;99521.88;4986405;28;19930;-65
2022/07/19 03:01:16;;;;;;;;;;;;;;;13.64;71.80;99523.63;4951016;28;20160;-65
2022/07/19 03:03:43;;;;;;;;;;;;;;;13.62;71.91;99520.38;4966361;28;20020;-65
2022/07/19 03:06:10;;;;;;;;;;;;;;;13.62;71.62;99523.13;4967537;28;19980;-66
2022/07/19 03:08:36;;;;;;;;;;;;;;;13.67;71.73;99519.47;4966823;28;19937;-66
2022/07/19 03:11:01;;;;;;;;;;;;;;;13.68;71.60;99510.91;4987332;28;19937;-66
2022/07/19 03:13:27;;;;;;;;;;;;;;;13.66;71.61;99520.56;4986443;28;20364;-67
2022/07/19 03:15:53;;;;;;;;;;;;;;;13.60;71.25;99514.38;4984210;28;20084;-66
2022/07/19 03:18:19;;;;;;;;;;;;;;;13.55;71.44;99515.25;4983650;28;19930;-66
2022/07/19 03:20:46;;;;;;;;;;;;;;;13.48;71.28;99523.06;4983012;28;19930;-66
2022/07/19 03:23:12;;;;;;;;;;;;;;;13.33;72.06;99518.63;4982718;28;19933;-66
2022/07/19 03:25:38;;;;;;;;;;;;;;;13.27;72.82;99519.84;4985164;28;19936;-66
2022/07/19 03:28:04;;;;;;;;;;;;;;;13.21;72.81;99527.34;4967546;28;19929;-66
2022/07/19 03:30:31;;;;;;;;;;;;;;;13.15;73.22;99521.09;4984829;28;19941;-67
2022/07/19 03:32:57;;;;;;;;;;;;;;;13.16;73.64;99530.13;4984964;28;19930;-66
2022/07/19 03:35:22;;;;;;;;;;;;;;;13.17;73.68;99531.78;4969745;28;20271;-67
2022/07/19 03:37:50;;;;;;;;;;;;;;;13.17;73.65;99529.03;4982821;28;20013;-64
2022/07/19 03:40:16;;;;;;;;;;;;;;;13.25;73.33;99527.53;4983059;28;20393;-65
2022/07/19 03:42:42;;;;;;;;;;;;;;;13.45;72.97;99521.75;4951368;28;19987;-65
2022/07/19 03:45:08;;;;;;;;;;;;;;;13.64;72.41;99531.03;4968398;28;20428;-65
2022/07/19 03:47:34;;;;;;;;;;;;;;;13.77;71.07;99529.44;4965858;28;20421;-65
2022/07/19 03:49:59;;;;;;;;;;;;;;;13.87;70.83;99537.47;4967541;28;20315;-66
2022/07/19 03:52:25;;;;;;;;;;;;;;;14.00;70.50;99533.13;4983590;28;19930;-66
2022/07/19 03:54:52;;;;;;;;;;;;;;;14.09;69.85;99536.00;4982679;28;20431;-65
2022/07/19 03:57:18;;;;;;;;;;;;;;;14.12;69.63;99532.63;4983282;28;19939;-64
2022/07/19 03:59:44;;;;;;;;;;;;;;;14.14;70.02;99541.38;4982850;28;20316;-65
2022/07/19 04:02:10;;;;;;;;;;;;;;;14.16;69.79;99537.22;4985644;28;19957;-64
2022/07/19 04:04:35;;;;;;;;;;;;;;;14.23;70.16;99533.22;4985432;28;20321;-64
2022/07/19 04:07:01;;;;;;;;;;;;;;;14.24;69.78;99540.34;4984224;28;19934;-64
2022/07/19 04:09:27;;;;;;;;;;;;;;;14.19;70.03;99535.78;4983401;28;20048;-66
2022/07/19 04:11:54;;;;;;;;;;;;;;;14.20;69.86;99533.84;4983190;28;19929;-66
2022/07/19 04:14:20;;;;;;;;;;;;;;;14.21;69.88;99532.72;4965834;28;20021;-66
2022/07/19 04:16:45;;;;;;;;;;;;;;;14.24;69.80;99532.94;4983855;28;19973;-66
2022/07/19 04:19:11;;;;;;;;;;;;;;;14.32;69.82;99528.66;4983791;28;19937;-66
2022/07/19 04:21:37;;;;;;;;;;;;;;;14.44;69.90;99533.63;4966214;28;19929;-66
2022/07/19 04:24:03;;;;;;;;;;;;;;;14.49;69.62;99536.25;4950371;28;20348;-65
2022/07/19 04:26:29;;;;;;;;;;;;;;;14.49;68.94;99540.97;4969537;28;20312;-66
2022/07/19 04:28:56;;;;;;;;;;;;;;;14.46;68.83;99534.97;4985502;28;19930;-66
2022/07/19 04:31:21;;;;;;;;;;;;;;;14.54;68.89;99533.44;4988905;28;20592;-66
2022/07/19 04:33:47;;;;;;;;;;;;;;;14.56;68.33;99527.59;4985971;28;19949;-65
2022/07/19 04:36:13;;;;;;;;;;;;;;;14.49;68.56;99533.50;4986727;28;19930;-66
2022/07/19 04:38:39;;;;;;;;;;;;;;;14.41;68.99;99534.25;4989862;28;19996;-66
2022/07/19 04:41:05;;;;;;;;;;;;;;;14.36;69.11;99537.09;4988585;28;19930;-67
2022/07/19 04:43:31;;;;;;;;;;;;;;;14.25;69.38;99539.25;4969126;28;19933;-65
2022/07/19 04:45:59;;;;;;;;;;;;;;;14.30;69.23;99539.16;4970241;28;19930;-67
2022/07/19 04:48:25;;;;;;;;;;;;;;;14.38;69.51;99543.13;4970974;28;19930;-66
2022/07/19 04:50:51;;;;;;;;;;;;;;;14.44;69.31;99531.72;4987023;28;19933;-66
2022/07/19 04:53:17;;;;;;;;;;;;;;;14.49;68.83;99539.03;4987066;28;20000;-65
2022/07/19 04:55:42;;;;;;;;;;;;;;;14.57;68.94;99537.47;4969667;28;20451;-66
2022/07/19 04:58:08;;;;;;;;;;;;;;;14.65;68.31;99538.69;4985472;28;20069;-66
2022/07/19 05:00:34;;;;;;;;;;;;;;;14.69;67.69;99535.00;4988893;28;19930;-65
2022/07/19 05:03:01;;;;;;;;;;;;;;;14.70;67.37;99539.41;4953144;28;19929;-64
2022/07/19 05:05:27;;;;;;;;;;;;;;;14.80;67.26;99537.59;4987168;28;20031;-65
2022/07/19 05:07:53;;;;;;;;;;;;;;;14.91;66.88;99547.25;4987093;28;20465;-65
2022/07/19 05:10:18;;;;;;;;;;;;;;;14.91;66.04;99541.75;4967496;28;20368;-65
2022/07/19 05:12:44;;;;;;;;;;;;;;;14.87;66.31;99547.03;4986874;28;19960;-65
2022/07/19 05:15:10;;;;;;;;;;;;;;;14.85;65.92;99535.53;4965909;28;20431;-65
2022/07/19 05:17:36;;;;;;;;;;;;;;;14.93;66.10;99530.41;4970296;28;19933;-65
2022/07/19 05:20:05;;;;;;;;;;;;;;;14.86;65.81;99517.91;4986693;28;20356;-65
2022/07/19 05:22:31;;;;;;;;;;;;;;;15.01;65.26;99530.47;4969596;28;20085;-67
2022/07/19 05:24:56;;;;;;;;;;;;;;;15.02;64.98;99532.09;4986585;28;20045;-65
2022/07/19 05:27:22;;;;;;;;;;;;;;;15.07;64.80;99530.38;4987791;28;19930;-64
2022/07/19 05:29:48;;;;;;;;;;;;;;;15.13;64.63;99518.09;4984536;28;19937;-64
2022/07/19 05:32:14;;;;;;;;;;;;;;;15.24;63.99;99529.66;4986210;28;19937;-65
2022/07/19 05:34:39;;;;;;;;;;;;;;;15.27;63.91;99526.28;4968146;28;19929;-64
2022/07/19 05:37:07;;;;;;;;;;;;;;;15.27;64.69;99526.28;4967984;28;20929;-64
2022/07/19 05:39:33;;;;;;;;;;;;;;;15.25;63.48;99523.88;4981626;28;19969;-67
2022/07/19 05:41:59;;;;;;;;;;;;;;;15.43;64.42;99526.72;4959750;28;20008;-66
2022/07/19 05:44:24;;;;;;;;;;;;;;;15.71;63.52;99535.66;4987195;28;20412;-66
2022/07/19 05:46:50;;;;;;;;;;;;;;;15.76;62.31;99531.94;4970611;28;20405;-64
2022/07/19 05:49:16;;;;;;;;;;;;;;;15.85;62.05;99524.56;4986153;28;19961;-65
2022/07/19 05:51:41;;;;;;;;;;;;;;;16.01;60.58;99527.72;4970464;28;20392;-67
2022/07/19 05:54:10;;;;;;;;;;;;;;;16.21;60.20;99527.47;4987741;28;19929;-66
2022/07/19 05:56:36;;;;;;;;;;;;;;;16.28;60.22;99525.03;4979631;28;19929;-64
2022/07/19 05:59:02;;;;;;;;;;;;;;;16.24;59.67;99519.38;5007413;28;20435;-65
2022/07/19 06:01:27;;;;;;;;;;;;;;;16.45;58.19;99518.78;4969818;28;19984;-66
2022/07/19 06:03:54;;;;;;;;;;;;;;;16.57;57.26;99527.25;4962979;28;19930;-66
2022/07/19 06:06:21;;;;;;;;;;;;;;;16.70;56.54;99532.91;4985730;28;19930;-65
2022/07/19 06:08:48;;;;;;;;;;;;;;;16.86;56.41;99534.09;4970062;28;20319;-65
2022/07/19 06:11:15;;;;;;;;;;;;;;;16.99;56.45;99518.53;4984166;28;20028;-65
2022/07/19 06:13:41;;;;;;;;;;;;;;;16.96;56.61;99513.63;4944012;28;19930;-65
2022/07/19 06:16:08;;;;;;;;;;;;;;;16.83;56.69;99515.41;4982866;28;19936;-64
2022/07/19 06:18:36;;;;;;;;;;;;;;;16.83;57.17;99522.88;4986281;28;19936;-65
2022/07/19 06:21:03;;;;;;;;;;;;;;;16.99;55.76;99531.50;4984660;28;19960;-65
2022/07/19 06:23:29;;;;;;;;;;;;;;;17.08;55.92;99521.28;4978880;28;20574;-66
2022/07/19 06:25:55;;;;;;;;;;;;;;;17.36;55.60;99518.19;4972776;28;20388;-66
2022/07/19 06:28:24;;;;;;;;;;;;;;;17.58;55.27;99517.16;4951387;28;19980;-66
2022/07/19 06:30:50;;;;;;;;;;;;;;;17.84;54.52;99521.78;4977960;28;19937;-66
2022/07/19 06:33:16;;;;;;;;;;;;;;;18.11;53.17;99518.97;4972128;28;19936;-66
2022/07/19 06:35:44;;;;;;;;;;;;;;;18.26;52.63;99526.72;4970539;28;20164;-66
2022/07/19 06:38:09;;;;;;;;;;;;;;;17.93;52.83;99530.03;4968535;28;19930;-67
2022/07/19 06:40:35;;;;;;;;;;;;;;;17.61;53.14;99523.97;4986878;28;19929;-67
2022/07/19 06:43:01;;;;;;;;;;;;;;;17.57;53.52;99534.91;4969980;28;19933;-67
2022/07/19 06:45:28;;;;;;;;;;;;;;;17.85;52.43;99528.94;4969139;28;19936;-66
2022/07/19 06:47:54;;;;;;;;;;;;;;;17.85;52.28;99539.19;4986853;28;19968;-66
2022/07/19 06:50:20;;;;;;;;;;;;;;;17.98;51.92;99538.19;4988080;28;20381;-67
2022/07/19 06:52:46;;;;;;;;;;;;;;;18.00;51.48;99524.00;4966872;28;19953;-67
2022/07/19 06:55:13;;;;;;;;;;;;;;;17.77;52.09;99532.56;4985422;28;19934;-66
2022/07/19 06:57:38;;;;;;;;;;;;;;;17.63;53.03;99524.44;4969045;28;20201;-65
2022/07/19 07:00:06;;;;;;;;;;;;;;;17.78;51.60;99523.13;4985465;28;20456;-66
2022/07/19 07:02:35;;;;;;;;;;;;;;;17.93;50.71;99543.09;4986101;28;19934;-66
2022/07/19 07:05:00;;;;;;;;;;;;;;;17.89;50.49;99531.88;4985104;28;19937;-67
2022/07/19 07:07:27;;;;;;;;;;;;;;;18.08;49.86;99541.75;4968292;28;19930;-66
2022/07/19 07:09:52;;;;;;;;;;;;;;;18.12;49.29;99537.97;4946640;28;19930;-66
2022/07/19 07:12:18;;;;;;;;;;;;;;;18.17;49.57;99523.16;4946127;28;19930;-66
2022/07/19 07:14:44;;;;;;;;;;;;;;;18.04;49.61;99527.78;4947993;28;19931;-65
2022/07/19 07:17:10;;;;;;;;;;;;;;;18.32;49.73;99524.53;4944677;28;19989;-65
2022/07/19 07:19:37;;;;;;;;;;;;;;;18.72;48.91;99537.16;4945124;28;19937;-66
2022/07/19 07:22:03;;;;;;;;;;;;;;;19.04;48.36;99543.13;4944768;28;19938;-65
2022/07/19 07:24:29;;;;;;;;;;;;;;;18.95;48.10;99531.31;4945387;28;19939;-65
2022/07/19 07:26:55;;;;;;;;;;;;;;;18.38;48.70;99539.81;4944943;29;19934;-65
2022/07/19 07:29:20;;;;;;;;;;;;;;;17.94;48.72;99531.66;4948492;28;20545;-65
2022/07/19 07:31:46;;;;;;;;;;;;;;;17.97;48.87;99539.31;4944931;29;19930;-66
2022/07/19 07:34:12;;;;;;;;;;;;;;;18.37;47.59;99521.59;4946405;28;19962;-66
2022/07/19 07:36:39;;;;;;;;;;;;;;;18.73;45.84;99532.44;4947040;28;19941;-65
2022/07/19 07:39:05;;;;;;;;;;;;;;;18.81;45.42;99548.16;4946249;29;20385;-64
2022/07/19 07:41:31;;;;;;;;;;;;;;;18.96;45.08;99539.25;4945933;29;19936;-65
2022/07/19 07:43:56;;;;;;;;;;;;;;;19.06;45.12;99531.72;4931381;28;19931;-65
2022/07/19 07:46:22;;;;;;;;;;;;;;;19.29;44.93;99539.69;4947702;28;19938;-65
2022/07/19 07:48:48;;;;;;;;;;;;;;;19.31;45.12;99540.16;4945466;28;20290;-65
2022/07/19 07:51:14;;;;;;;;;;;;;;;19.18;45.40;99540.09;4946503;28;19931;-65
2022/07/19 07:53:41;;;;;;;;;;;;;;;19.19;45.76;99551.97;4948742;28;20058;-64
2022/07/19 07:56:07;;;;;;;;;;;;;;;19.20;46.08;99543.34;4945857;28;20449;-65
2022/07/19 07:58:32;;;;;;;;;;;;;;;19.00;46.13;99550.50;4946319;28;20029;-65
2022/07/19 08:00:58;;;;;;;;;;;;;;;19.09;46.10;99558.75;4949727;28;19964;-65
2022/07/19 08:03:24;;;;;;;;;;;;;;;19.10;46.16;99541.81;4949114;28;19934;-65
2022/07/19 08:05:49;;;;;;;;;;;;;;;19.07;45.48;99534.16;4607725;28;9999794;-65
2022/07/19 08:08:15;;;;;;;;;;;;;;;19.27;44.06;99532.50;4959044;28;20134;-65
2022/07/19 08:10:43;;;;;;;;;;;;;;;19.61;42.90;99556.66;4986204;28;19930;-67
2022/07/19 08:13:09;;;;;;;;;;;;;;;19.52;42.98;99535.38;4965652;28;20056;-65
2022/07/19 08:15:36;;;;;;;;;;;;;;;19.71;43.59;99545.13;4951160;28;19929;-65
2022/07/19 08:18:02;;;;;;;;;;;;;;;19.59;44.70;99550.63;4969982;28;19933;-65
2022/07/19 08:20:28;;;;;;;;;;;;;;;19.72;44.72;99555.06;4987427;28;19936;-65
2022/07/19 08:22:53;;;;;;;;;;;;;;;19.77;44.29;99540.19;4985389;28;20320;-65
2022/07/19 08:25:19;;;;;;;;;;;;;;;20.06;43.22;99538.41;4970149;28;19929;-66
2022/07/19 08:27:46;;;;;;;;;;;;;;;19.70;42.81;99558.19;4984955;28;19943;-66
2022/07/19 08:30:13;;;;;;;;;;;;;;;20.15;42.24;99561.31;4980512;28;20021;-67
2022/07/19 08:32:39;;;;;;;;;;;;;;;20.85;40.79;99561.53;4979019;28;19930;-66
2022/07/19 08:35:05;;;;;;;;;;;;;;;21.51;38.73;99562.22;4987192;28;20040;-67
2022/07/19 08:37:31;;;;;;;;;;;;;;;21.90;37.65;99547.78;4989670;28;19929;-66
2022/07/19 08:39:57;;;;;;;;;;;;;;;22.16;36.62;99547.25;4990418;28;19930;-67
2022/07/19 08:42:22;;;;;;;;;;;;;;;22.54;35.95;99546.97;4970732;28;19929;-65
2022/07/19 08:44:50;;;;;;;;;;;;;;;22.32;36.17;99543.66;4988047;28;19953;-66
2022/07/19 08:47:18;;;;;;;;;;;;;;;22.13;36.50;99555.53;4988780;28;20021;-66
2022/07/19 08:49:44;;;;;;;;;;;;;;;21.73;37.59;99554.50;4969028;28;20411;-67
2022/07/19 08:52:10;;;;;;;;;;;;;;;22.00;37.20;99544.47;4984947;28;20255;-67
2022/07/19 08:54:36;;;;;;;;;;;;;;;22.44;35.90;99535.19;4986284;28;19940;-66
2022/07/19 08:59:46;;;;;;;;;;;;;;;23.28;34.18;99548.19;4987524;28;20409;-67
2022/07/19 09:02:13;;;;;;;;;;;;;;;22.96;34.91;99537.97;4987866;28;19940;-66
2022/07/19 09:04:39;;;;;;;;;;;;;;;22.83;34.75;99539.28;4988473;28;20404;-66
2022/07/19 09:07:05;;;;;;;;;;;;;;;22.99;34.84;99525.25;4986778;28;19940;-65
2022/07/19 09:09:32;;;;;;;;;;;;;;;23.64;33.75;99535.75;4969937;28;19930;-67
2022/07/19 09:11:59;;;;;;;;;;;;;;;22.98;33.56;99540.38;4969841;28;19930;-67
2022/07/19 09:14:25;;;;;;;;;;;;;;;22.48;34.17;99527.78;4988066;28;19962;-66
2022/07/19 09:16:53;;;;;;;;;;;;;;;23.05;33.14;99499.53;4970608;28;20036;-66
2022/07/19 09:19:20;;;;;;;;;;;;;;;24.06;32.35;99511.78;4971056;28;20008;-66
2022/07/19 09:22:00;;;;;;;;;;;;;;;24.74;31.34;99511.19;4968560;28;20017;-67
2022/07/19 09:24:28;;;;;;;;;;;;;;;25.19;30.22;99502.97;4989015;28;19930;-66
2022/07/19 09:26:55;;;;;;;;;;;;;;;24.80;30.23;99513.66;4987547;28;19970;-67
2022/07/19 09:29:21;;;;;;;;;;;;;;;24.71;30.36;99520.34;4987447;28;20375;-66
2022/07/19 09:31:57;;;;;;;;;;;;;;;24.89;29.88;99520.59;4938870;28;19930;-66
2022/07/19 09:34:27;;;;;;;;;;;;;;;24.90;29.56;99507.41;4986384;28;20132;-66
2022/07/19 09:37:06;;;;;;;;;;;;;;;25.03;29.15;99497.59;4970672;28;19937;-67
2022/07/19 09:39:32;;;;;;;;;;;;;;;25.40;29.00;99514.78;4988811;28;19933;-67
2022/07/19 09:41:58;;;;;;;;;;;;;;;25.38;29.38;99511.56;4985884;28;20424;-65
2022/07/19 09:44:23;;;;;;;;;;;;;;;25.99;28.27;99515.00;4967736;28;19980;-67
2022/07/19 09:46:50;;;;;;;;;;;;;;;26.19;28.00;99514.78;4968065;28;19980;-66
2022/07/19 09:49:16;;;;;;;;;;;;;;;26.13;28.26;99517.09;4985601;28;19936;-67
2022/07/19 09:51:45;;;;;;;;;;;;;;;25.43;28.91;99502.81;4985055;28;19933;-67
2022/07/19 09:54:11;;;;;;;;;;;;;;;24.37;31.13;99503.50;4986366;28;19937;-67
2022/07/19 09:56:38;;;;;;;;;;;;;;;23.58;32.42;99514.94;4986777;28;19969;-66
2022/07/19 09:59:04;;;;;;;;;;;;;;;22.61;34.03;99508.97;4968895;28;19930;-67
2022/07/19 10:01:30;;;;;;;;;;;;;;;23.72;33.29;99511.56;4971339;28;19944;-66
2022/07/19 10:03:57;;;;;;;;;;;;;;;23.89;32.49;99515.03;4951504;28;19953;-67
2022/07/19 10:06:25;;;;;;;;;;;;;;;23.58;33.61;99519.69;4987933;28;19929;-66
2022/07/19 10:08:52;;;;;;;;;;;;;;;23.53;32.96;99520.00;4969720;28;19985;-68
2022/07/19 10:11:18;;;;;;;;;;;;;;;24.91;31.57;99509.03;4986019;28;20160;-67
2022/07/19 10:13:43;;;;;;;;;;;;;;;25.33;31.05;99521.09;4988271;28;20407;-66
2022/07/19 10:16:17;;;;;;;;;;;;;;;24.84;31.66;99501.34;4988428;28;19956;-67
2022/07/19 10:18:49;;;;;;;;;;;;;;;25.61;30.55;99526.25;4970585;28;19936;-66
2022/07/19 10:21:15;;;;;;;;;;;;;;;25.65;30.45;99515.06;4985960;28;20060;-65
2022/07/19 10:23:49;;;;;;;;;;;;;;;26.25;30.17;99520.84;4985222;28;19961;-65
2022/07/19 10:26:32;;;;;;;;;;;;;;;26.95;28.02;99520.88;4985571;28;19963;-65
2022/07/19 10:29:06;;;;;;;;;;;;;;;27.07;28.30;99513.31;4988070;28;20305;-66
2022/07/19 10:31:32;;;;;;;;;;;;;;;26.55;28.22;99520.63;4986437;28;20057;-65
2022/07/19 10:33:58;;;;;;;;;;;;;;;25.52;29.84;99497.78;4986310;28;20445;-68
2022/07/19 10:36:34;;;;;;;;;;;;;;;24.53;31.47;99497.72;4967380;28;20385;-67
2022/07/19 10:39:18;;;;;;;;;;;;;;;23.75;33.25;99508.03;4971526;28;19930;-66
2022/07/19 10:41:59;;;;;;;;;;;;;;;23.49;34.32;99517.13;4940465;28;20401;-66
2022/07/19 10:44:26;;;;;;;;;;;;;;;23.82;34.34;99507.34;4980753;28;20328;-66
2022/07/19 10:46:51;;;;;;;;;;;;;;;23.23;34.72;99521.38;4967802;28;19984;-66
2022/07/19 10:49:32;;;;;;;;;;;;;;;22.81;35.86;99503.41;4986338;28;19930;-66
2022/07/19 10:52:20;;;;;;;;;;;;;;;24.33;33.82;99505.41;4985129;28;19968;-67
2022/07/19 10:54:46;;;;;;;;;;;;;;;25.97;30.73;99502.56;4985845;28;19967;-67
2022/07/19 10:57:12;;;;;;;;;;;;;;;26.38;29.63;99498.91;4985849;28;19930;-68
2022/07/19 10:59:42;;;;;;;;;;;;;;;25.01;32.21;99499.16;4986391;28;19936;-66
2022/07/19 11:02:21;;;;;;;;;;;;;;;23.68;34.34;99501.53;4986108;28;20497;-66
2022/07/19 11:04:47;;;;;;;;;;;;;;;22.78;37.04;99507.72;4986036;28;19929;-66
2022/07/19 11:07:17;;;;;;;;;;;;;;;22.72;36.65;99508.41;4983599;28;19936;-66
2022/07/19 11:09:45;;;;;;;;;;;;;;;23.01;36.43;99514.56;4985116;28;19972;-66
2022/07/19 11:12:24;;;;;;;;;;;;;;;24.25;35.17;99486.94;4985038;28;19930;-66
2022/07/19 11:14:52;;;;;;;;;;;;;;;25.49;32.53;99498.53;4981186;28;19934;-67
2022/07/19 11:17:17;;;;;;;;;;;;;;;25.93;31.92;99513.75;4983945;28;19930;-66
2022/07/19 11:19:55;;;;;;;;;;;;;;;26.32;31.00;99490.88;4968349;28;19968;-66
2022/07/19 11:22:21;;;;;;;;;;;;;;;25.98;31.67;99492.97;4985213;28;19930;-66
2022/07/19 11:24:47;;;;;;;;;;;;;;;26.39;30.69;99495.72;4970952;28;20415;-66
2022/07/19 11:27:12;;;;;;;;;;;;;;;26.53;31.58;99491.38;4985396;28;19930;-66
2022/07/19 11:29:53;;;;;;;;;;;;;;;26.78;30.92;99487.91;4984503;28;19936;-66
2022/07/19 11:32:19;;;;;;;;;;;;;;;26.05;31.53;99507.03;4986048;28;20069;-65
2022/07/19 11:34:52;;;;;;;;;;;;;;;25.79;31.65;99492.03;4968287;28;20425;-66
2022/07/19 11:37:22;;;;;;;;;;;;;;;26.24;31.07;99502.41;4988707;28;20032;-65
2022/07/19 11:39:49;;;;;;;;;;;;;;;25.86;31.05;99491.28;4992354;28;19930;-67
2022/07/19 11:42:15;;;;;;;;;;;;;;;25.01;32.27;99502.78;4975065;28;19936;-67
2022/07/19 11:44:41;;;;;;;;;;;;;;;25.79;31.49;99491.22;4991102;28;20016;-66
2022/07/19 11:47:10;;;;;;;;;;;;;;;26.66;28.99;99491.88;4992559;28;19984;-65
2022/07/19 11:49:38;;;;;;;;;;;;;;;27.13;28.66;99497.69;4992922;28;19929;-66
2022/07/19 11:52:04;;;;;;;;;;;;;;;27.66;26.81;99498.25;4993163;28;19936;-67
2022/07/19 11:54:30;;;;;;;;;;;;;;;27.63;26.94;99487.81;4988210;28;19929;-67
2022/07/19 11:56:55;;;;;;;;;;;;;;;27.76;26.47;99486.22;4641299;28;10000160;-67
2022/07/19 11:59:21;;;;;;;;;;;;;;;28.68;26.03;99484.94;4987499;28;19930;-67
2022/07/19 12:01:47;;;;;;;;;;;;;;;29.49;24.39;99484.16;4969791;28;19930;-66
2022/07/19 12:04:15;;;;;;;;;;;;;;;29.90;23.88;99479.88;4971365;28;19940;-65
2022/07/19 12:06:42;;;;;;;;;;;;;;;28.64;25.36;99481.31;4988561;28;19929;-66
2022/07/19 12:09:10;;;;;;;;;;;;;;;26.92;27.14;99482.41;4966465;28;19930;-65
2022/07/19 12:11:40;;;;;;;;;;;;;;;25.02;29.44;99476.44;4984939;28;19929;-65
2022/07/19 12:14:16;;;;;;;;;;;;;;;24.05;31.33;99476.66;4966129;28;20225;-65
2022/07/19 12:16:42;;;;;;;;;;;;;;;23.65;32.71;99484.34;4967961;28;19929;-65
2022/07/19 12:19:11;;;;;;;;;;;;;;;23.34;33.05;99480.59;4966102;28;20385;-66
2022/07/19 12:21:42;;;;;;;;;;;;;;;23.07;33.31;99476.88;4953045;28;19941;-66
2022/07/19 12:24:15;;;;;;;;;;;;;;;23.02;33.78;99477.97;4971665;28;19933;-65
2022/07/19 12:26:42;;;;;;;;;;;;;;;22.77;33.66;99472.66;4974314;28;20396;-66
2022/07/19 12:29:18;;;;;;;;;;;;;;;22.43;34.45;99471.53;4957542;28;20020;-66
2022/07/19 12:31:44;;;;;;;;;;;;;;;22.18;34.65;99477.31;4987931;28;20425;-67
2022/07/19 12:34:10;;;;;;;;;;;;;;;21.88;35.45;99484.16;4987506;28;19953;-66
2022/07/19 12:36:36;;;;;;;;;;;;;;;21.46;36.20;99474.31;4989419;28;19973;-66
2022/07/19 12:39:04;;;;;;;;;;;;;;;21.33;36.83;99476.34;4972981;28;19937;-65
2022/07/19 12:41:30;;;;;;;;;;;;;;;21.14;37.25;99474.25;4988704;28;20091;-67
2022/07/19 12:43:56;;;;;;;;;;;;;;;20.85;37.52;99479.00;4986251;28;20024;-66
2022/07/19 12:46:21;;;;;;;;;;;;;;;20.63;38.39;99485.88;4986941;28;20392;-66